PWSweather.com
Personal Weather Stations
Station Observations
KCARIDGE3
Ridgecrest, CA 93555

Ridgecrest, CA 93555

Lat: 35.62083817, Lon: -117.6733017

Elevation: 2315

Station Type:

High Low Average
Temperature 74.7°F23.7°C 55.2°F12.9°C 65.6°F18.7°C
Dew Point 45.3°F7.4°C 27.5°F-2.5°C 39.4°F4.1°C
Winds 33.1 mph 53.3 kmh Calm Calm 15.0 mph SSW24.1 kmh SSW
Wind Gusts 40.9 mph65.8 kmh -- 15.0 mph24.1 kmh
Humidity 67% 27% 40%
Pressure -338605.1 mb -338605.1 mb -
Precipitation 0.00 in0.0 mm - -
Hour Temp Dew Point Humidity Winds Wind Gusts Pressure Precip Precip Rate Daily Precip Total
12:02 AM 63.1°F17.3°C 43.7°F6.5°C 49% 8.9 mph SSW14.3 kmh SSW 6.9 mph11.1 kmh -338605.1 mb - 0.00 in0.0 mm 0.00 in0.0 mm
12:07 AM 63.1°F17.3°C 44.2°F6.8°C 50% 8.9 mph SSW14.3 kmh SSW 6.9 mph11.1 kmh -338605.1 mb - 0.00 in0.0 mm 0.00 in0.0 mm
12:12 AM 63.1°F17.3°C 44.2°F6.8°C 50% 8.9 mph SSW14.3 kmh SSW 4.9 mph7.9 kmh -338605.1 mb - 0.00 in0.0 mm 0.00 in0.0 mm
12:17 AM 63.0°F17.2°C 44.1°F6.7°C 50% 8.1 mph SW13.0 kmh SW 10.1 mph16.3 kmh -338605.1 mb - 0.00 in0.0 mm 0.00 in0.0 mm
12:22 AM 62.8°F17.1°C 43.9°F6.6°C 50% 8.1 mph SSW13.0 kmh SSW 8.1 mph13.0 kmh -338605.1 mb - 0.00 in0.0 mm 0.00 in0.0 mm
12:27 AM 62.8°F17.1°C 43.9°F6.6°C 50% 8.1 mph SW13.0 kmh SW 6.9 mph11.1 kmh -338605.1 mb - 0.00 in0.0 mm 0.00 in0.0 mm
12:32 AM 62.8°F17.1°C 43.9°F6.6°C 50% 8.1 mph S13.0 kmh S 4.9 mph7.9 kmh -338605.1 mb - 0.00 in0.0 mm 0.00 in0.0 mm
12:37 AM 62.6°F17.0°C 43.7°F6.5°C 50% 8.1 mph SSW13.0 kmh SSW 11.0 mph17.7 kmh -338605.1 mb - 0.00 in0.0 mm 0.00 in0.0 mm
12:42 AM 62.6°F17.0°C 43.7°F6.5°C 50% 8.9 mph SW14.3 kmh SW 8.1 mph13.0 kmh -338605.1 mb - 0.00 in0.0 mm 0.00 in0.0 mm
12:47 AM 62.6°F17.0°C 43.7°F6.5°C 50% 8.9 mph SW14.3 kmh SW 12.1 mph19.5 kmh -338605.1 mb - 0.00 in0.0 mm 0.00 in0.0 mm
12:52 AM 62.6°F17.0°C 43.7°F6.5°C 50% 8.1 mph SSW13.0 kmh SSW 12.1 mph19.5 kmh -338605.1 mb - 0.00 in0.0 mm 0.00 in0.0 mm
12:57 AM 62.4°F16.9°C 43.5°F6.4°C 50% 8.1 mph SW13.0 kmh SW 6.9 mph11.1 kmh -338605.1 mb - 0.00 in0.0 mm 0.00 in0.0 mm
01:02 AM 62.4°F16.9°C 43.5°F6.4°C 50% 8.9 mph SW14.3 kmh SW 16.1 mph25.9 kmh -338605.1 mb - 0.00 in0.0 mm 0.00 in0.0 mm
01:07 AM 62.4°F16.9°C 44.1°F6.7°C 51% 8.9 mph SW14.3 kmh SW 6.9 mph11.1 kmh -338605.1 mb - 0.00 in0.0 mm 0.00 in0.0 mm
01:12 AM 62.4°F16.9°C 44.1°F6.7°C 51% 8.1 mph SW13.0 kmh SW 2.9 mph4.7 kmh -338605.1 mb - 0.00 in0.0 mm 0.00 in0.0 mm
01:17 AM 62.4°F16.9°C 44.1°F6.7°C 51% 6.9 mph SW11.1 kmh SW 4.0 mph6.4 kmh -338605.1 mb - 0.00 in0.0 mm 0.00 in0.0 mm
01:22 AM 62.4°F16.9°C 43.5°F6.4°C 50% 6.9 mph SW11.1 kmh SW 6.0 mph9.7 kmh -338605.1 mb - 0.00 in0.0 mm 0.00 in0.0 mm
01:27 AM 62.4°F16.9°C 43.5°F6.4°C 50% 6.9 mph SW11.1 kmh SW 6.0 mph9.7 kmh -338605.1 mb - 0.00 in0.0 mm 0.00 in0.0 mm
01:32 AM 62.2°F16.8°C 43.9°F6.6°C 51% 6.9 mph SSW11.1 kmh SSW 11.0 mph17.7 kmh -338605.1 mb - 0.00 in0.0 mm 0.00 in0.0 mm
01:37 AM 62.2°F16.8°C 43.9°F6.6°C 51% 8.9 mph SW14.3 kmh SW 11.0 mph17.7 kmh -338605.1 mb - 0.00 in0.0 mm 0.00 in0.0 mm
01:42 AM 62.1°F16.7°C 43.7°F6.5°C 51% 8.9 mph SSW14.3 kmh SSW 6.9 mph11.1 kmh -338605.1 mb - 0.00 in0.0 mm 0.00 in0.0 mm
01:47 AM 61.9°F16.6°C 44.1°F6.7°C 52% 8.9 mph SW14.3 kmh SW 12.1 mph19.5 kmh -338605.1 mb - 0.00 in0.0 mm 0.00 in0.0 mm
01:52 AM 61.9°F16.6°C 44.1°F6.7°C 52% 8.9 mph SW14.3 kmh SW 4.9 mph7.9 kmh -338605.1 mb - 0.00 in0.0 mm 0.00 in0.0 mm
01:57 AM 61.5°F16.4°C 44.2°F6.8°C 53% 8.1 mph SW13.0 kmh SW 4.9 mph7.9 kmh -338605.1 mb - 0.00 in0.0 mm 0.00 in0.0 mm
02:02 AM 61.3°F16.3°C 44.1°F6.7°C 53% 8.9 mph SW14.3 kmh SW 6.9 mph11.1 kmh -338605.1 mb - 0.00 in0.0 mm 0.00 in0.0 mm
02:07 AM 61.2°F16.2°C 43.9°F6.6°C 53% 8.9 mph SW14.3 kmh SW 12.1 mph19.5 kmh -338605.1 mb - 0.00 in0.0 mm 0.00 in0.0 mm
02:12 AM 61.2°F16.2°C 43.9°F6.6°C 53% 8.9 mph SSW14.3 kmh SSW 6.9 mph11.1 kmh -338605.1 mb - 0.00 in0.0 mm 0.00 in0.0 mm
02:17 AM 61.3°F16.3°C 44.6°F7.0°C 54% 8.9 mph SSW14.3 kmh SSW 15.0 mph24.1 kmh -338605.1 mb - 0.00 in0.0 mm 0.00 in0.0 mm
02:22 AM 61.3°F16.3°C 44.1°F6.7°C 53% 10.1 mph SSW16.3 kmh SSW 11.0 mph17.7 kmh -338605.1 mb - 0.00 in0.0 mm 0.00 in0.0 mm
02:27 AM 61.3°F16.3°C 43.5°F6.4°C 52% 10.1 mph S16.3 kmh S 11.0 mph17.7 kmh -338605.1 mb - 0.00 in0.0 mm 0.00 in0.0 mm
02:32 AM 61.3°F16.3°C 43.5°F6.4°C 52% 8.9 mph SW14.3 kmh SW 13.0 mph20.9 kmh -338605.1 mb - 0.00 in0.0 mm 0.00 in0.0 mm
02:37 AM 61.2°F16.2°C 43.9°F6.6°C 53% 8.9 mph SW14.3 kmh SW 6.0 mph9.7 kmh -338605.1 mb - 0.00 in0.0 mm 0.00 in0.0 mm
02:42 AM 61.0°F16.1°C 44.2°F6.8°C 54% 8.9 mph SSW14.3 kmh SSW 12.1 mph19.5 kmh -338605.1 mb - 0.00 in0.0 mm 0.00 in0.0 mm
02:47 AM 60.8°F16.0°C 44.1°F6.7°C 54% 10.1 mph SW16.3 kmh SW 14.1 mph22.7 kmh -338605.1 mb - 0.00 in0.0 mm 0.00 in0.0 mm
02:52 AM 60.8°F16.0°C 44.1°F6.7°C 54% 8.9 mph SW14.3 kmh SW 8.9 mph14.3 kmh -338605.1 mb - 0.00 in0.0 mm 0.00 in0.0 mm
02:57 AM 60.6°F15.9°C 43.9°F6.6°C 54% 8.9 mph SW14.3 kmh SW 6.0 mph9.7 kmh -338605.1 mb - 0.00 in0.0 mm 0.00 in0.0 mm
03:02 AM 60.8°F16.0°C 44.6°F7.0°C 55% 10.1 mph SSW16.3 kmh SSW 8.9 mph14.3 kmh -338605.1 mb - 0.00 in0.0 mm 0.00 in0.0 mm
03:07 AM 61.2°F16.2°C 44.4°F6.9°C 54% 10.1 mph SSW16.3 kmh SSW 4.0 mph6.4 kmh -338605.1 mb - 0.00 in0.0 mm 0.00 in0.0 mm
03:12 AM 61.2°F16.2°C 43.3°F6.3°C 52% 8.1 mph SSW13.0 kmh SSW 4.9 mph7.9 kmh -338605.1 mb - 0.00 in0.0 mm 0.00 in0.0 mm
03:17 AM 61.3°F16.3°C 43.5°F6.4°C 52% 8.1 mph SSW13.0 kmh SSW 6.9 mph11.1 kmh -338605.1 mb - 0.00 in0.0 mm 0.00 in0.0 mm
03:22 AM 61.3°F16.3°C 44.1°F6.7°C 53% 8.9 mph SSW14.3 kmh SSW 8.1 mph13.0 kmh -338605.1 mb - 0.00 in0.0 mm 0.00 in0.0 mm
03:27 AM 61.2°F16.2°C 43.9°F6.6°C 53% 8.9 mph SW14.3 kmh SW 10.1 mph16.3 kmh -338605.1 mb - 0.00 in0.0 mm 0.00 in0.0 mm
03:32 AM 61.2°F16.2°C 43.3°F6.3°C 52% 6.9 mph SSW11.1 kmh SSW 4.9 mph7.9 kmh -338605.1 mb - 0.00 in0.0 mm 0.00 in0.0 mm
03:37 AM 61.2°F16.2°C 43.3°F6.3°C 52% 6.9 mph SW11.1 kmh SW 6.9 mph11.1 kmh -338605.1 mb - 0.00 in0.0 mm 0.00 in0.0 mm
03:42 AM 61.2°F16.2°C 43.9°F6.6°C 53% 6.9 mph SSW11.1 kmh SSW 4.0 mph6.4 kmh -338605.1 mb - 0.00 in0.0 mm 0.00 in0.0 mm
03:47 AM 61.3°F16.3°C 43.5°F6.4°C 52% 6.9 mph SSW11.1 kmh SSW 8.1 mph13.0 kmh -338605.1 mb - 0.00 in0.0 mm 0.00 in0.0 mm
03:52 AM 61.2°F16.2°C 43.3°F6.3°C 52% 6.9 mph SW11.1 kmh SW 6.0 mph9.7 kmh -338605.1 mb - 0.00 in0.0 mm 0.00 in0.0 mm
03:57 AM 61.2°F16.2°C 43.3°F6.3°C 52% 6.0 mph SW9.7 kmh SW 4.0 mph6.4 kmh -338605.1 mb - 0.00 in0.0 mm 0.00 in0.0 mm
04:02 AM 61.2°F16.2°C 43.3°F6.3°C 52% 4.9 mph SSW7.9 kmh SSW 2.9 mph4.7 kmh -338605.1 mb - 0.00 in0.0 mm 0.00 in0.0 mm
04:07 AM 61.2°F16.2°C 43.3°F6.3°C 52% 6.0 mph SW9.7 kmh SW 8.1 mph13.0 kmh -338605.1 mb - 0.00 in0.0 mm 0.00 in0.0 mm
04:12 AM 61.2°F16.2°C 43.3°F6.3°C 52% 6.0 mph SW9.7 kmh SW 4.9 mph7.9 kmh -338605.1 mb - 0.00 in0.0 mm 0.00 in0.0 mm
04:17 AM 61.2°F16.2°C 43.3°F6.3°C 52% 6.0 mph SW9.7 kmh SW 6.0 mph9.7 kmh -338605.1 mb - 0.00 in0.0 mm 0.00 in0.0 mm
04:22 AM 61.2°F16.2°C 43.3°F6.3°C 52% 6.0 mph SW9.7 kmh SW 6.0 mph9.7 kmh -338605.1 mb - 0.00 in0.0 mm 0.00 in0.0 mm
04:27 AM 61.2°F16.2°C 43.3°F6.3°C 52% 4.9 mph S7.9 kmh S 4.0 mph6.4 kmh -338605.1 mb - 0.00 in0.0 mm 0.00 in0.0 mm
04:32 AM 61.3°F16.3°C 43.0°F6.1°C 51% 4.0 mph WSW6.4 kmh WSW 4.9 mph7.9 kmh -338605.1 mb - 0.00 in0.0 mm 0.00 in0.0 mm
04:37 AM 61.5°F16.4°C 43.2°F6.2°C 51% 4.0 mph SW6.4 kmh SW 6.9 mph11.1 kmh -338605.1 mb - 0.00 in0.0 mm 0.00 in0.0 mm
04:42 AM 61.5°F16.4°C 42.6°F5.9°C 50% 4.9 mph SW7.9 kmh SW 2.0 mph3.2 kmh -338605.1 mb - 0.00 in0.0 mm 0.00 in0.0 mm
04:47 AM 61.5°F16.4°C 42.6°F5.9°C 50% 4.9 mph SW7.9 kmh SW 4.0 mph6.4 kmh -338605.1 mb - 0.00 in0.0 mm 0.00 in0.0 mm
04:52 AM 61.5°F16.4°C 43.2°F6.2°C 51% 4.0 mph S6.4 kmh S 6.0 mph9.7 kmh -338605.1 mb - 0.00 in0.0 mm 0.00 in0.0 mm
04:57 AM 61.3°F16.3°C 43.0°F6.1°C 51% 2.9 mph SE4.7 kmh SE 2.9 mph4.7 kmh -338605.1 mb - 0.00 in0.0 mm 0.00 in0.0 mm
05:02 AM 61.0°F16.1°C 43.2°F6.2°C 52% 2.9 mph NE4.7 kmh NE 2.9 mph4.7 kmh -338605.1 mb - 0.00 in0.0 mm 0.00 in0.0 mm
05:07 AM 59.9°F15.5°C 43.2°F6.2°C 54% 6.0 mph E9.7 kmh E 6.9 mph11.1 kmh -338605.1 mb - 0.00 in0.0 mm 0.00 in0.0 mm
05:12 AM 59.2°F15.1°C 43.5°F6.4°C 56% 6.0 mph E9.7 kmh E 6.0 mph9.7 kmh -338605.1 mb - 0.00 in0.0 mm 0.00 in0.0 mm
05:17 AM 58.8°F14.9°C 44.6°F7.0°C 59% 6.0 mph ENE9.7 kmh ENE 11.0 mph17.7 kmh -338605.1 mb - 0.00 in0.0 mm 0.00 in0.0 mm
05:22 AM 57.6°F14.2°C 43.7°F6.5°C 60% 8.9 mph E14.3 kmh E 11.0 mph17.7 kmh -338605.1 mb - 0.00 in0.0 mm 0.00 in0.0 mm
05:27 AM 56.8°F13.8°C 43.5°F6.4°C 61% 8.1 mph ENE13.0 kmh ENE 4.9 mph7.9 kmh -338605.1 mb - 0.00 in0.0 mm 0.00 in0.0 mm
05:32 AM 56.7°F13.7°C 43.7°F6.5°C 62% 6.0 mph E9.7 kmh E 10.1 mph16.3 kmh -338605.1 mb - 0.00 in0.0 mm 0.00 in0.0 mm
05:37 AM 56.5°F13.6°C 44.1°F6.7°C 63% 6.0 mph E9.7 kmh E 4.0 mph6.4 kmh -338605.1 mb - 0.00 in0.0 mm 0.00 in0.0 mm
05:42 AM 56.5°F13.6°C 44.1°F6.7°C 63% 6.0 mph ESE9.7 kmh ESE 4.0 mph6.4 kmh -338605.1 mb - 0.00 in0.0 mm 0.00 in0.0 mm
05:47 AM 56.3°F13.5°C 44.2°F6.8°C 64% 4.9 mph E7.9 kmh E 8.9 mph14.3 kmh -338605.1 mb - 0.00 in0.0 mm 0.00 in0.0 mm
05:52 AM 56.1°F13.4°C 44.6°F7.0°C 65% 6.0 mph E9.7 kmh E 6.9 mph11.1 kmh -338605.1 mb - 0.00 in0.0 mm 0.00 in0.0 mm
05:57 AM 56.1°F13.4°C 44.1°F6.7°C 64% 6.0 mph ESE9.7 kmh ESE 4.0 mph6.4 kmh -338605.1 mb - 0.00 in0.0 mm 0.00 in0.0 mm
06:02 AM 56.1°F13.4°C 44.1°F6.7°C 64% 4.9 mph E7.9 kmh E 6.0 mph9.7 kmh -338605.1 mb - 0.00 in0.0 mm 0.00 in0.0 mm
06:07 AM 55.9°F13.3°C 43.9°F6.6°C 64% 4.9 mph E7.9 kmh E 8.1 mph13.0 kmh -338605.1 mb - 0.00 in0.0 mm 0.00 in0.0 mm
06:12 AM 55.8°F13.2°C 44.2°F6.8°C 65% 6.9 mph ESE11.1 kmh ESE 4.0 mph6.4 kmh -338605.1 mb - 0.00 in0.0 mm 0.00 in0.0 mm
06:17 AM 55.6°F13.1°C 44.1°F6.7°C 65% 6.9 mph E11.1 kmh E 8.1 mph13.0 kmh -338605.1 mb - 0.00 in0.0 mm 0.00 in0.0 mm
06:22 AM 55.6°F13.1°C 44.8°F7.1°C 67% 6.9 mph E11.1 kmh E 8.1 mph13.0 kmh -338605.1 mb - 0.00 in0.0 mm 0.00 in0.0 mm
06:27 AM 55.6°F13.1°C 44.4°F6.9°C 66% 6.0 mph ESE9.7 kmh ESE 4.9 mph7.9 kmh -338605.1 mb - 0.00 in0.0 mm 0.00 in0.0 mm
06:32 AM 55.4°F13.0°C 44.2°F6.8°C 66% 6.0 mph E9.7 kmh E 6.9 mph11.1 kmh -338605.1 mb - 0.00 in0.0 mm 0.00 in0.0 mm
06:37 AM 55.2°F12.9°C 44.1°F6.7°C 66% 6.0 mph E9.7 kmh E 4.9 mph7.9 kmh -338605.1 mb - 0.00 in0.0 mm 0.00 in0.0 mm
06:42 AM 55.4°F13.0°C 44.2°F6.8°C 66% 4.9 mph E7.9 kmh E 4.9 mph7.9 kmh -338605.1 mb - 0.00 in0.0 mm 0.00 in0.0 mm
06:47 AM 55.8°F13.2°C 44.6°F7.0°C 66% 4.9 mph E7.9 kmh E 4.9 mph7.9 kmh -338605.1 mb - 0.00 in0.0 mm 0.00 in0.0 mm
06:52 AM 56.1°F13.4°C 44.6°F7.0°C 65% 6.0 mph E9.7 kmh E 6.0 mph9.7 kmh -338605.1 mb - 0.00 in0.0 mm 0.00 in0.0 mm
06:57 AM 56.5°F13.6°C 44.4°F6.9°C 64% 4.9 mph E7.9 kmh E 4.9 mph7.9 kmh -338605.1 mb - 0.00 in0.0 mm 0.00 in0.0 mm
07:02 AM 56.5°F13.6°C 44.4°F6.9°C 64% 4.9 mph E7.9 kmh E 6.9 mph11.1 kmh -338605.1 mb - 0.00 in0.0 mm 0.00 in0.0 mm
07:07 AM 56.7°F13.7°C 44.2°F6.8°C 63% 6.9 mph E11.1 kmh E 4.0 mph6.4 kmh -338605.1 mb - 0.00 in0.0 mm 0.00 in0.0 mm
07:12 AM 57.7°F14.3°C 44.8°F7.1°C 62% 6.0 mph E9.7 kmh E 6.0 mph9.7 kmh -338605.1 mb - 0.00 in0.0 mm 0.00 in0.0 mm
07:17 AM 58.6°F14.8°C 45.3°F7.4°C 61% 4.9 mph E7.9 kmh E 2.9 mph4.7 kmh -338605.1 mb - 0.00 in0.0 mm 0.00 in0.0 mm
07:22 AM 59.2°F15.1°C 44.8°F7.1°C 59% 4.9 mph ENE7.9 kmh ENE 2.9 mph4.7 kmh -338605.1 mb - 0.00 in0.0 mm 0.00 in0.0 mm
07:27 AM 59.4°F15.2°C 44.6°F7.0°C 58% 4.9 mph E7.9 kmh E 8.1 mph13.0 kmh -338605.1 mb - 0.00 in0.0 mm 0.00 in0.0 mm
07:32 AM 59.9°F15.5°C 44.6°F7.0°C 57% 4.9 mph E7.9 kmh E 2.0 mph3.2 kmh -338605.1 mb - 0.00 in0.0 mm 0.00 in0.0 mm
07:37 AM 60.6°F15.9°C 44.4°F6.9°C 55% 2.9 mph E4.7 kmh E -- -338605.1 mb - 0.00 in0.0 mm 0.00 in0.0 mm
07:42 AM 61.5°F16.4°C 44.8°F7.1°C 54% 2.0 mph E3.2 kmh E 0.9 mph1.4 kmh -338605.1 mb - 0.00 in0.0 mm 0.00 in0.0 mm
07:47 AM 62.2°F16.8°C 44.4°F6.9°C 52% 0.9 mph ENE1.4 kmh ENE 0.9 mph1.4 kmh -338605.1 mb - 0.00 in0.0 mm 0.00 in0.0 mm
07:52 AM 62.8°F17.1°C 44.4°F6.9°C 51% Calm Calm 0.9 mph1.4 kmh -338605.1 mb - 0.00 in0.0 mm 0.00 in0.0 mm
07:57 AM 63.1°F17.3°C 45.1°F7.3°C 52% 2.0 mph E3.2 kmh E 2.9 mph4.7 kmh -338605.1 mb - 0.00 in0.0 mm 0.00 in0.0 mm
08:02 AM 63.3°F17.4°C 44.4°F6.9°C 50% 2.9 mph E4.7 kmh E 0.9 mph1.4 kmh -338605.1 mb - 0.00 in0.0 mm 0.00 in0.0 mm
08:07 AM 64.2°F17.9°C 44.1°F6.7°C 48% 2.0 mph E3.2 kmh E 2.0 mph3.2 kmh -338605.1 mb - 0.00 in0.0 mm 0.00 in0.0 mm
08:12 AM 65.1°F18.4°C 43.9°F6.6°C 46% 2.0 mph E3.2 kmh E 2.0 mph3.2 kmh -338605.1 mb - 0.00 in0.0 mm 0.00 in0.0 mm
08:17 AM 65.8°F18.8°C 43.3°F6.3°C 44% 2.0 mph NE3.2 kmh NE 2.0 mph3.2 kmh -338605.1 mb - 0.00 in0.0 mm 0.00 in0.0 mm
08:22 AM 66.2°F19.0°C 44.2°F6.8°C 45% 4.0 mph NE6.4 kmh NE 4.0 mph6.4 kmh -338605.1 mb - 0.00 in0.0 mm 0.00 in0.0 mm
08:27 AM 66.4°F19.1°C 44.4°F6.9°C 45% 4.9 mph NE7.9 kmh NE 4.0 mph6.4 kmh -338605.1 mb - 0.00 in0.0 mm 0.00 in0.0 mm
08:32 AM 66.6°F19.2°C 44.1°F6.7°C 44% 4.0 mph NE6.4 kmh NE 0.9 mph1.4 kmh -338605.1 mb - 0.00 in0.0 mm 0.00 in0.0 mm
08:37 AM 66.7°F19.3°C 44.8°F7.1°C 45% 4.0 mph E6.4 kmh E 6.9 mph11.1 kmh -338605.1 mb - 0.00 in0.0 mm 0.00 in0.0 mm
08:42 AM 66.6°F19.2°C 44.6°F7.0°C 45% 6.0 mph NE9.7 kmh NE 8.1 mph13.0 kmh -338605.1 mb - 0.00 in0.0 mm 0.00 in0.0 mm
08:47 AM 67.6°F19.8°C 45.0°F7.2°C 44% 6.9 mph E11.1 kmh E 4.9 mph7.9 kmh -338605.1 mb - 0.00 in0.0 mm 0.00 in0.0 mm
08:52 AM 67.6°F19.8°C 44.4°F6.9°C 43% 4.9 mph ENE7.9 kmh ENE 2.9 mph4.7 kmh -338605.1 mb - 0.00 in0.0 mm 0.00 in0.0 mm
08:57 AM 67.8°F19.9°C 44.4°F6.9°C 43% 4.9 mph E7.9 kmh E 6.0 mph9.7 kmh -338605.1 mb - 0.00 in0.0 mm 0.00 in0.0 mm
09:02 AM 68.4°F20.2°C 44.4°F6.9°C 42% 4.9 mph E7.9 kmh E 4.9 mph7.9 kmh -338605.1 mb - 0.00 in0.0 mm 0.00 in0.0 mm
09:07 AM 68.5°F20.3°C 43.9°F6.6°C 41% 2.9 mph ESE4.7 kmh ESE 4.0 mph6.4 kmh -338605.1 mb - 0.00 in0.0 mm 0.00 in0.0 mm
09:12 AM 69.6°F20.9°C 43.5°F6.4°C 39% 2.9 mph E4.7 kmh E 2.0 mph3.2 kmh -338605.1 mb - 0.00 in0.0 mm 0.00 in0.0 mm
09:17 AM 70.3°F21.3°C 40.6°F4.8°C 34% 4.9 mph WSW7.9 kmh WSW 10.1 mph16.3 kmh -338605.1 mb - 0.00 in0.0 mm 0.00 in0.0 mm
09:22 AM 70.5°F21.4°C 40.1°F4.5°C 33% 8.1 mph W13.0 kmh W 14.1 mph22.7 kmh -338605.1 mb - 0.00 in0.0 mm 0.00 in0.0 mm
09:27 AM 70.5°F21.4°C 39.2°F4.0°C 32% 11.0 mph WSW17.7 kmh WSW 14.1 mph22.7 kmh -338605.1 mb - 0.00 in0.0 mm 0.00 in0.0 mm
09:32 AM 70.9°F21.6°C 40.3°F4.6°C 33% 12.1 mph SW19.5 kmh SW 17.0 mph27.4 kmh -338605.1 mb - 0.00 in0.0 mm 0.00 in0.0 mm
09:37 AM 71.2°F21.8°C 41.4°F5.2°C 34% 13.0 mph SW20.9 kmh SW 21.9 mph35.2 kmh -338605.1 mb - 0.00 in0.0 mm 0.00 in0.0 mm
09:42 AM 71.6°F22.0°C 41.7°F5.4°C 34% 14.1 mph SW22.7 kmh SW 15.0 mph24.1 kmh -338605.1 mb - 0.00 in0.0 mm 0.00 in0.0 mm
09:47 AM 71.8°F22.1°C 41.2°F5.1°C 33% 16.1 mph WSW25.9 kmh WSW 15.0 mph24.1 kmh -338605.1 mb - 0.00 in0.0 mm 0.00 in0.0 mm
09:52 AM 71.8°F22.1°C 41.9°F5.5°C 34% 16.1 mph WSW25.9 kmh WSW 17.9 mph28.8 kmh -338605.1 mb - 0.00 in0.0 mm 0.00 in0.0 mm
09:57 AM 72.0°F22.2°C 41.4°F5.2°C 33% 16.1 mph WSW25.9 kmh WSW 12.1 mph19.5 kmh -338605.1 mb - 0.00 in0.0 mm 0.00 in0.0 mm
10:02 AM 72.1°F22.3°C 41.4°F5.2°C 33% 17.9 mph SW28.8 kmh SW 21.0 mph33.8 kmh -338605.1 mb - 0.00 in0.0 mm 0.00 in0.0 mm
10:07 AM 72.0°F22.2°C 42.1°F5.6°C 34% 17.9 mph SW28.8 kmh SW 14.1 mph22.7 kmh -338605.1 mb - 0.00 in0.0 mm 0.00 in0.0 mm
10:12 AM 71.6°F22.0°C 41.7°F5.4°C 34% 17.9 mph WSW28.8 kmh WSW 17.9 mph28.8 kmh -338605.1 mb - 0.00 in0.0 mm 0.00 in0.0 mm
10:17 AM 71.4°F21.9°C 40.8°F4.9°C 33% 19.0 mph SW30.6 kmh SW 15.0 mph24.1 kmh -338605.1 mb - 0.00 in0.0 mm 0.00 in0.0 mm
10:22 AM 71.6°F22.0°C 41.7°F5.4°C 34% 21.0 mph WSW33.8 kmh WSW 25.9 mph41.7 kmh -338605.1 mb - 0.00 in0.0 mm 0.00 in0.0 mm
10:27 AM 72.0°F22.2°C 41.4°F5.2°C 33% 19.0 mph SW30.6 kmh SW 17.9 mph28.8 kmh -338605.1 mb - 0.00 in0.0 mm 0.00 in0.0 mm
10:32 AM 72.3°F22.4°C 40.8°F4.9°C 32% 16.1 mph WSW25.9 kmh WSW 8.9 mph14.3 kmh -338605.1 mb - 0.00 in0.0 mm 0.00 in0.0 mm
10:37 AM 72.3°F22.4°C 41.5°F5.3°C 33% 16.1 mph WSW25.9 kmh WSW 17.0 mph27.4 kmh -338605.1 mb - 0.00 in0.0 mm 0.00 in0.0 mm
10:42 AM 72.5°F22.5°C 41.0°F5.0°C 32% 17.9 mph W28.8 kmh W 21.0 mph33.8 kmh -338605.1 mb - 0.00 in0.0 mm 0.00 in0.0 mm
10:47 AM 72.3°F22.4°C 41.5°F5.3°C 33% 19.0 mph SW30.6 kmh SW 12.1 mph19.5 kmh -338605.1 mb - 0.00 in0.0 mm 0.00 in0.0 mm
10:52 AM 72.7°F22.6°C 40.3°F4.6°C 31% 16.1 mph SSW25.9 kmh SSW 4.0 mph6.4 kmh -338605.1 mb - 0.00 in0.0 mm 0.00 in0.0 mm
10:57 AM 73.2°F22.9°C 40.8°F4.9°C 31% 13.0 mph WSW20.9 kmh WSW 17.9 mph28.8 kmh -338605.1 mb - 0.00 in0.0 mm 0.00 in0.0 mm
11:02 AM 73.8°F23.2°C 41.2°F5.1°C 31% 14.1 mph SW22.7 kmh SW 11.0 mph17.7 kmh -338605.1 mb - 0.00 in0.0 mm 0.00 in0.0 mm
11:07 AM 73.9°F23.3°C 38.8°F3.8°C 28% 14.1 mph WNW22.7 kmh WNW 19.0 mph30.6 kmh -338605.1 mb - 0.00 in0.0 mm 0.00 in0.0 mm
11:12 AM 73.9°F23.3°C 39.7°F4.3°C 29% 14.1 mph SSW22.7 kmh SSW 8.1 mph13.0 kmh -338605.1 mb - 0.00 in0.0 mm 0.00 in0.0 mm
11:17 AM 73.9°F23.3°C 40.5°F4.7°C 30% 17.0 mph WSW27.4 kmh WSW 19.0 mph30.6 kmh -338605.1 mb - 0.00 in0.0 mm 0.00 in0.0 mm
11:22 AM 73.8°F23.2°C 40.5°F4.7°C 30% 19.9 mph SW32.0 kmh SW 29.1 mph46.8 kmh -338605.1 mb - 0.00 in0.0 mm 0.00 in0.0 mm
11:27 AM 74.5°F23.6°C 40.1°F4.5°C 29% 21.9 mph SW35.2 kmh SW 23.0 mph37.0 kmh -338605.1 mb - 0.00 in0.0 mm 0.00 in0.0 mm
11:32 AM 74.7°F23.7°C 38.5°F3.6°C 27% 21.0 mph W33.8 kmh W 17.0 mph27.4 kmh -338605.1 mb - 0.00 in0.0 mm 0.00 in0.0 mm
11:37 AM 73.9°F23.3°C 38.8°F3.8°C 28% 21.9 mph W35.2 kmh W 21.0 mph33.8 kmh -338605.1 mb - 0.00 in0.0 mm 0.00 in0.0 mm
11:42 AM 73.8°F23.2°C 37.8°F3.2°C 27% 23.9 mph W38.5 kmh W 28.0 mph45.1 kmh -338605.1 mb - 0.00 in0.0 mm 0.00 in0.0 mm
11:47 AM 73.9°F23.3°C 38.8°F3.8°C 28% 23.9 mph W38.5 kmh W 28.0 mph45.1 kmh -338605.1 mb - 0.00 in0.0 mm 0.00 in0.0 mm
11:52 AM 73.8°F23.2°C 39.6°F4.2°C 29% 23.9 mph WSW38.5 kmh WSW 27.1 mph43.6 kmh -338605.1 mb - 0.00 in0.0 mm 0.00 in0.0 mm
11:57 AM 73.4°F23.0°C 41.0°F5.0°C 31% 27.1 mph WSW43.6 kmh WSW 21.0 mph33.8 kmh -338605.1 mb - 0.00 in0.0 mm 0.00 in0.0 mm
12:02 PM 72.9°F22.7°C 40.5°F4.7°C 31% 28.0 mph WSW45.1 kmh WSW 27.1 mph43.6 kmh -338605.1 mb - 0.00 in0.0 mm 0.00 in0.0 mm
12:07 PM 72.7°F22.6°C 41.2°F5.1°C 32% 28.0 mph WSW45.1 kmh WSW 23.0 mph37.0 kmh -338605.1 mb - 0.00 in0.0 mm 0.00 in0.0 mm
12:12 PM 72.9°F22.7°C 41.4°F5.2°C 32% 25.9 mph WSW41.7 kmh WSW 21.9 mph35.2 kmh -338605.1 mb - 0.00 in0.0 mm 0.00 in0.0 mm
12:17 PM 72.5°F22.5°C 41.0°F5.0°C 32% 23.9 mph WSW38.5 kmh WSW 29.1 mph46.8 kmh -338605.1 mb - 0.00 in0.0 mm 0.00 in0.0 mm
12:22 PM 72.7°F22.6°C 41.2°F5.1°C 32% 25.1 mph WSW40.4 kmh WSW 12.1 mph19.5 kmh -338605.1 mb - 0.00 in0.0 mm 0.00 in0.0 mm
12:27 PM 72.9°F22.7°C 40.5°F4.7°C 31% 23.9 mph WSW38.5 kmh WSW 25.1 mph40.4 kmh -338605.1 mb - 0.00 in0.0 mm 0.00 in0.0 mm
12:32 PM 73.0°F22.8°C 40.6°F4.8°C 31% 23.9 mph WSW38.5 kmh WSW 33.1 mph53.3 kmh -338605.1 mb - 0.00 in0.0 mm 0.00 in0.0 mm
12:37 PM 73.2°F22.9°C 39.9°F4.4°C 30% 25.9 mph SW41.7 kmh SW 25.1 mph40.4 kmh -338605.1 mb - 0.00 in0.0 mm 0.00 in0.0 mm
12:42 PM 73.4°F23.0°C 41.0°F5.0°C 31% 25.1 mph SW40.4 kmh SW 17.0 mph27.4 kmh -338605.1 mb - 0.00 in0.0 mm 0.00 in0.0 mm
12:47 PM 73.6°F23.1°C 41.0°F5.0°C 31% 23.9 mph WSW38.5 kmh WSW 23.9 mph38.5 kmh -338605.1 mb - 0.00 in0.0 mm 0.00 in0.0 mm
12:52 PM 73.4°F23.0°C 41.0°F5.0°C 31% 25.1 mph SW40.4 kmh SW 29.1 mph46.8 kmh -338605.1 mb - 0.00 in0.0 mm 0.00 in0.0 mm
12:57 PM 73.6°F23.1°C 40.3°F4.6°C 30% 23.9 mph WSW38.5 kmh WSW 19.0 mph30.6 kmh -338605.1 mb - 0.00 in0.0 mm 0.00 in0.0 mm
01:02 PM 73.8°F23.2°C 40.5°F4.7°C 30% 25.1 mph WSW40.4 kmh WSW 32.0 mph51.5 kmh -338605.1 mb - 0.00 in0.0 mm 0.00 in0.0 mm
01:07 PM 73.6°F23.1°C 39.4°F4.1°C 29% 27.1 mph WSW43.6 kmh WSW 23.0 mph37.0 kmh -338605.1 mb - 0.00 in0.0 mm 0.00 in0.0 mm
01:12 PM 73.4°F23.0°C 40.1°F4.5°C 30% 28.0 mph SW45.1 kmh SW 32.0 mph51.5 kmh -338605.1 mb - 0.00 in0.0 mm 0.00 in0.0 mm
01:17 PM 73.8°F23.2°C 39.6°F4.2°C 29% 23.0 mph SW37.0 kmh SW 29.1 mph46.8 kmh -338605.1 mb - 0.00 in0.0 mm 0.00 in0.0 mm
01:22 PM 74.1°F23.4°C 39.9°F4.4°C 29% 19.9 mph SSW32.0 kmh SSW 16.1 mph25.9 kmh -338605.1 mb - 0.00 in0.0 mm 0.00 in0.0 mm
01:27 PM 74.1°F23.4°C 39.9°F4.4°C 29% 19.9 mph WSW32.0 kmh WSW 16.1 mph25.9 kmh -338605.1 mb - 0.00 in0.0 mm 0.00 in0.0 mm
01:32 PM 74.1°F23.4°C 39.9°F4.4°C 29% 19.9 mph WSW32.0 kmh WSW 8.9 mph14.3 kmh -338605.1 mb - 0.00 in0.0 mm 0.00 in0.0 mm
01:37 PM 73.9°F23.3°C 39.7°F4.3°C 29% 21.9 mph SW35.2 kmh SW 17.9 mph28.8 kmh -338605.1 mb - 0.00 in0.0 mm 0.00 in0.0 mm
01:42 PM 73.9°F23.3°C 39.7°F4.3°C 29% 23.9 mph SW38.5 kmh SW 31.1 mph50.1 kmh -338605.1 mb - 0.00 in0.0 mm 0.00 in0.0 mm
01:47 PM 74.3°F23.5°C 39.9°F4.4°C 29% 23.0 mph WSW37.0 kmh WSW 31.1 mph50.1 kmh -338605.1 mb - 0.00 in0.0 mm 0.00 in0.0 mm
01:52 PM 74.1°F23.4°C 39.0°F3.9°C 28% 23.0 mph SW37.0 kmh SW 17.0 mph27.4 kmh -338605.1 mb - 0.00 in0.0 mm 0.00 in0.0 mm
01:57 PM 73.8°F23.2°C 39.6°F4.2°C 29% 25.1 mph SSW40.4 kmh SSW 13.0 mph20.9 kmh -338605.1 mb - 0.00 in0.0 mm 0.00 in0.0 mm
02:02 PM 73.8°F23.2°C 38.7°F3.7°C 28% 27.1 mph WSW43.6 kmh WSW 33.1 mph53.3 kmh -338605.1 mb - 0.00 in0.0 mm 0.00 in0.0 mm
02:07 PM 73.8°F23.2°C 38.7°F3.7°C 28% 28.0 mph WSW45.1 kmh WSW 38.0 mph61.2 kmh -338605.1 mb - 0.00 in0.0 mm 0.00 in0.0 mm
02:12 PM 73.6°F23.1°C 39.4°F4.1°C 29% 27.1 mph SW43.6 kmh SW 29.1 mph46.8 kmh -338605.1 mb - 0.00 in0.0 mm 0.00 in0.0 mm
02:17 PM 73.0°F22.8°C 39.7°F4.3°C 30% 28.0 mph SW45.1 kmh SW 32.0 mph51.5 kmh -338605.1 mb - 0.00 in0.0 mm 0.00 in0.0 mm
02:22 PM 72.5°F22.5°C 39.4°F4.1°C 30% 30.0 mph WSW48.3 kmh WSW 40.9 mph65.8 kmh -338605.1 mb - 0.00 in0.0 mm 0.00 in0.0 mm
02:27 PM 71.4°F21.9°C 38.3°F3.5°C 30% 32.0 mph WSW51.5 kmh WSW 38.9 mph62.6 kmh -338605.1 mb - 0.00 in0.0 mm 0.00 in0.0 mm
02:32 PM 70.5°F21.4°C 38.5°F3.6°C 31% 29.1 mph SW46.8 kmh SW 28.0 mph45.1 kmh -338605.1 mb - 0.00 in0.0 mm 0.00 in0.0 mm
02:37 PM 70.2°F21.2°C 38.8°F3.8°C 32% 25.1 mph SW40.4 kmh SW 23.9 mph38.5 kmh -338605.1 mb - 0.00 in0.0 mm 0.00 in0.0 mm
02:42 PM 69.8°F21.0°C 39.4°F4.1°C 33% 25.9 mph WSW41.7 kmh WSW 27.1 mph43.6 kmh -338605.1 mb - 0.00 in0.0 mm 0.00 in0.0 mm
02:47 PM 69.4°F20.8°C 39.9°F4.4°C 34% 28.0 mph WSW45.1 kmh WSW 10.1 mph16.3 kmh -338605.1 mb - 0.00 in0.0 mm 0.00 in0.0 mm
02:52 PM 69.1°F20.6°C 39.6°F4.2°C 34% 27.1 mph SW43.6 kmh SW 40.0 mph64.4 kmh -338605.1 mb - 0.00 in0.0 mm 0.00 in0.0 mm
02:57 PM 68.5°F20.3°C 39.0°F3.9°C 34% 25.9 mph SW41.7 kmh SW 19.0 mph30.6 kmh -338605.1 mb - 0.00 in0.0 mm 0.00 in0.0 mm
03:02 PM 68.5°F20.3°C 39.0°F3.9°C 34% 23.9 mph SSW38.5 kmh SSW 21.9 mph35.2 kmh -338605.1 mb - 0.00 in0.0 mm 0.00 in0.0 mm
03:07 PM 68.4°F20.2°C 39.6°F4.2°C 35% 23.9 mph SW38.5 kmh SW 23.0 mph37.0 kmh -338605.1 mb - 0.00 in0.0 mm 0.00 in0.0 mm
03:12 PM 68.0°F20.0°C 39.4°F4.1°C 35% 25.1 mph SW40.4 kmh SW 36.9 mph59.4 kmh -338605.1 mb - 0.00 in0.0 mm 0.00 in0.0 mm
03:17 PM 67.6°F19.8°C 39.7°F4.3°C 36% 23.9 mph SSW38.5 kmh SSW 25.1 mph40.4 kmh -338605.1 mb - 0.00 in0.0 mm 0.00 in0.0 mm
03:22 PM 67.6°F19.8°C 39.0°F3.9°C 35% 23.9 mph S38.5 kmh S 17.9 mph28.8 kmh -338605.1 mb - 0.00 in0.0 mm 0.00 in0.0 mm
03:27 PM 67.5°F19.7°C 39.6°F4.2°C 36% 21.9 mph SW35.2 kmh SW 19.0 mph30.6 kmh -338605.1 mb - 0.00 in0.0 mm 0.00 in0.0 mm
03:32 PM 67.3°F19.6°C 38.7°F3.7°C 35% 21.0 mph WSW33.8 kmh WSW 23.9 mph38.5 kmh -338605.1 mb - 0.00 in0.0 mm 0.00 in0.0 mm
03:37 PM 67.3°F19.6°C 38.7°F3.7°C 35% 21.0 mph SW33.8 kmh SW 32.0 mph51.5 kmh -338605.1 mb - 0.00 in0.0 mm 0.00 in0.0 mm
03:42 PM 67.3°F19.6°C 38.7°F3.7°C 35% 21.9 mph SW35.2 kmh SW 28.0 mph45.1 kmh -338605.1 mb - 0.00 in0.0 mm 0.00 in0.0 mm
03:47 PM 67.3°F19.6°C 38.7°F3.7°C 35% 21.9 mph SSW35.2 kmh SSW 25.1 mph40.4 kmh -338605.1 mb - 0.00 in0.0 mm 0.00 in0.0 mm
03:52 PM 67.5°F19.7°C 38.8°F3.8°C 35% 21.0 mph SW33.8 kmh SW 14.1 mph22.7 kmh -338605.1 mb - 0.00 in0.0 mm 0.00 in0.0 mm
03:57 PM 67.5°F19.7°C 38.1°F3.4°C 34% 19.9 mph SW32.0 kmh SW 30.0 mph48.3 kmh -338605.1 mb - 0.00 in0.0 mm 0.00 in0.0 mm
04:02 PM 67.6°F19.8°C 38.3°F3.5°C 34% 19.0 mph WSW30.6 kmh WSW 13.0 mph20.9 kmh -338605.1 mb - 0.00 in0.0 mm 0.00 in0.0 mm
04:07 PM 67.6°F19.8°C 38.3°F3.5°C 34% 21.0 mph WSW33.8 kmh WSW 25.1 mph40.4 kmh -338605.1 mb - 0.00 in0.0 mm 0.00 in0.0 mm
04:12 PM 67.6°F19.8°C 38.3°F3.5°C 34% 23.9 mph SW38.5 kmh SW 17.0 mph27.4 kmh -338605.1 mb - 0.00 in0.0 mm 0.00 in0.0 mm
04:17 PM 67.6°F19.8°C 37.6°F3.1°C 33% 25.1 mph WSW40.4 kmh WSW 28.0 mph45.1 kmh -338605.1 mb - 0.00 in0.0 mm 0.00 in0.0 mm
04:22 PM 67.6°F19.8°C 38.3°F3.5°C 34% 25.9 mph WSW41.7 kmh WSW 21.9 mph35.2 kmh -338605.1 mb - 0.00 in0.0 mm 0.00 in0.0 mm
04:27 PM 67.5°F19.7°C 38.1°F3.4°C 34% 27.1 mph WSW43.6 kmh WSW 30.0 mph48.3 kmh -338605.1 mb - 0.00 in0.0 mm 0.00 in0.0 mm
04:32 PM 67.3°F19.6°C 37.9°F3.3°C 34% 29.1 mph WSW46.8 kmh WSW 25.9 mph41.7 kmh -338605.1 mb - 0.00 in0.0 mm 0.00 in0.0 mm
04:37 PM 67.3°F19.6°C 37.9°F3.3°C 34% 31.1 mph WSW50.1 kmh WSW 38.0 mph61.2 kmh -338605.1 mb - 0.00 in0.0 mm 0.00 in0.0 mm
04:42 PM 67.1°F19.5°C 38.5°F3.6°C 35% 31.1 mph WSW50.1 kmh WSW 34.0 mph54.7 kmh -338605.1 mb - 0.00 in0.0 mm 0.00 in0.0 mm
04:47 PM 66.7°F19.3°C 38.3°F3.5°C 35% 28.0 mph SW45.1 kmh SW 21.0 mph33.8 kmh -338605.1 mb - 0.00 in0.0 mm 0.00 in0.0 mm
04:52 PM 66.7°F19.3°C 38.3°F3.5°C 35% 28.0 mph WSW45.1 kmh WSW 36.9 mph59.4 kmh -338605.1 mb - 0.00 in0.0 mm 0.00 in0.0 mm
04:57 PM 66.7°F19.3°C 38.3°F3.5°C 35% 32.0 mph WSW51.5 kmh WSW 34.0 mph54.7 kmh -338605.1 mb - 0.00 in0.0 mm 0.00 in0.0 mm
05:02 PM 66.7°F19.3°C 38.3°F3.5°C 35% 33.1 mph SW53.3 kmh SW 31.1 mph50.1 kmh -338605.1 mb - 0.00 in0.0 mm 0.00 in0.0 mm
05:07 PM 66.7°F19.3°C 37.4°F3.0°C 34% 32.0 mph WSW51.5 kmh WSW 32.0 mph51.5 kmh -338605.1 mb - 0.00 in0.0 mm 0.00 in0.0 mm
05:12 PM 66.9°F19.4°C 37.6°F3.1°C 34% 31.1 mph SW50.1 kmh SW 19.0 mph30.6 kmh -338605.1 mb - 0.00 in0.0 mm 0.00 in0.0 mm
05:17 PM 66.9°F19.4°C 37.6°F3.1°C 34% 31.1 mph WSW50.1 kmh WSW 25.9 mph41.7 kmh -338605.1 mb - 0.00 in0.0 mm 0.00 in0.0 mm
05:22 PM 67.1°F19.5°C 38.5°F3.6°C 35% 27.1 mph WSW43.6 kmh WSW 19.0 mph30.6 kmh -338605.1 mb - 0.00 in0.0 mm 0.00 in0.0 mm
05:27 PM 67.1°F19.5°C 37.8°F3.2°C 34% 25.9 mph WSW41.7 kmh WSW 27.1 mph43.6 kmh -338605.1 mb - 0.00 in0.0 mm 0.00 in0.0 mm
05:32 PM 66.9°F19.4°C 37.6°F3.1°C 34% 28.0 mph SW45.1 kmh SW 32.0 mph51.5 kmh -338605.1 mb - 0.00 in0.0 mm 0.00 in0.0 mm
05:37 PM 66.9°F19.4°C 37.6°F3.1°C 34% 28.0 mph WSW45.1 kmh WSW 27.1 mph43.6 kmh -338605.1 mb - 0.00 in0.0 mm 0.00 in0.0 mm
05:42 PM 66.9°F19.4°C 37.6°F3.1°C 34% 28.0 mph SW45.1 kmh SW 21.9 mph35.2 kmh -338605.1 mb - 0.00 in0.0 mm 0.00 in0.0 mm
05:47 PM 66.9°F19.4°C 37.6°F3.1°C 34% 25.9 mph SW41.7 kmh SW 28.0 mph45.1 kmh -338605.1 mb - 0.00 in0.0 mm 0.00 in0.0 mm
05:52 PM 66.7°F19.3°C 37.4°F3.0°C 34% 25.9 mph WSW41.7 kmh WSW 36.9 mph59.4 kmh -338605.1 mb - 0.00 in0.0 mm 0.00 in0.0 mm
05:57 PM 66.9°F19.4°C 37.6°F3.1°C 34% 27.1 mph WSW43.6 kmh WSW 27.1 mph43.6 kmh -338605.1 mb - 0.00 in0.0 mm 0.00 in0.0 mm
06:02 PM 66.7°F19.3°C 38.3°F3.5°C 35% 28.0 mph W45.1 kmh W 21.9 mph35.2 kmh -338605.1 mb - 0.00 in0.0 mm 0.00 in0.0 mm
06:07 PM 66.7°F19.3°C 38.3°F3.5°C 35% 28.0 mph WSW45.1 kmh WSW 40.0 mph64.4 kmh -338605.1 mb - 0.00 in0.0 mm 0.00 in0.0 mm
06:12 PM 66.6°F19.2°C 38.1°F3.4°C 35% 28.0 mph WSW45.1 kmh WSW 36.9 mph59.4 kmh -338605.1 mb - 0.00 in0.0 mm 0.00 in0.0 mm
06:17 PM 66.6°F19.2°C 38.1°F3.4°C 35% 27.1 mph WSW43.6 kmh WSW 27.1 mph43.6 kmh -338605.1 mb - 0.00 in0.0 mm 0.00 in0.0 mm
06:22 PM 66.7°F19.3°C 37.4°F3.0°C 34% 25.1 mph WSW40.4 kmh WSW 23.9 mph38.5 kmh -338605.1 mb - 0.00 in0.0 mm 0.00 in0.0 mm
06:27 PM 66.9°F19.4°C 37.6°F3.1°C 34% 23.0 mph SW37.0 kmh SW 13.0 mph20.9 kmh -338605.1 mb - 0.00 in0.0 mm 0.00 in0.0 mm
06:32 PM 67.3°F19.6°C 37.2°F2.9°C 33% 21.0 mph SW33.8 kmh SW 16.1 mph25.9 kmh -338605.1 mb - 0.00 in0.0 mm 0.00 in0.0 mm
06:37 PM 67.6°F19.8°C 37.6°F3.1°C 33% 19.9 mph SW32.0 kmh SW 19.0 mph30.6 kmh -338605.1 mb - 0.00 in0.0 mm 0.00 in0.0 mm
06:42 PM 67.8°F19.9°C 36.1°F2.3°C 31% 19.0 mph SSW30.6 kmh SSW 14.1 mph22.7 kmh -338605.1 mb - 0.00 in0.0 mm 0.00 in0.0 mm
06:47 PM 68.2°F20.1°C 35.6°F2.0°C 30% 19.9 mph WSW32.0 kmh WSW 19.0 mph30.6 kmh -338605.1 mb - 0.00 in0.0 mm 0.00 in0.0 mm
06:52 PM 68.4°F20.2°C 35.8°F2.1°C 30% 19.0 mph WSW30.6 kmh WSW 19.0 mph30.6 kmh -338605.1 mb - 0.00 in0.0 mm 0.00 in0.0 mm
06:57 PM 68.5°F20.3°C 36.7°F2.6°C 31% 19.0 mph SW30.6 kmh SW 23.9 mph38.5 kmh -338605.1 mb - 0.00 in0.0 mm 0.00 in0.0 mm
07:02 PM 68.2°F20.1°C 36.3°F2.4°C 31% 19.0 mph SW30.6 kmh SW 8.9 mph14.3 kmh -338605.1 mb - 0.00 in0.0 mm 0.00 in0.0 mm
07:07 PM 68.0°F20.0°C 35.4°F1.9°C 30% 19.0 mph SW30.6 kmh SW 19.0 mph30.6 kmh -338605.1 mb - 0.00 in0.0 mm 0.00 in0.0 mm
07:12 PM 68.0°F20.0°C 35.4°F1.9°C 30% 19.9 mph WSW32.0 kmh WSW 28.0 mph45.1 kmh -338605.1 mb - 0.00 in0.0 mm 0.00 in0.0 mm
07:17 PM 67.8°F19.9°C 35.2°F1.8°C 30% 21.9 mph WSW35.2 kmh WSW 21.9 mph35.2 kmh -338605.1 mb - 0.00 in0.0 mm 0.00 in0.0 mm
07:22 PM 67.5°F19.7°C 35.8°F2.1°C 31% 23.0 mph WSW37.0 kmh WSW 17.0 mph27.4 kmh -338605.1 mb - 0.00 in0.0 mm 0.00 in0.0 mm
07:27 PM 67.3°F19.6°C 34.7°F1.5°C 30% 23.0 mph WSW37.0 kmh WSW 23.9 mph38.5 kmh -338605.1 mb - 0.00 in0.0 mm 0.00 in0.0 mm
07:32 PM 67.1°F19.5°C 35.4°F1.9°C 31% 21.9 mph WSW35.2 kmh WSW 14.1 mph22.7 kmh -338605.1 mb - 0.00 in0.0 mm 0.00 in0.0 mm
07:37 PM 66.7°F19.3°C 35.1°F1.7°C 31% 19.9 mph W32.0 kmh W 23.9 mph38.5 kmh -338605.1 mb - 0.00 in0.0 mm 0.00 in0.0 mm
07:42 PM 66.7°F19.3°C 35.1°F1.7°C 31% 19.9 mph WSW32.0 kmh WSW 19.9 mph32.0 kmh -338605.1 mb - 0.00 in0.0 mm 0.00 in0.0 mm
07:47 PM 66.6°F19.2°C 35.8°F2.1°C 32% 19.0 mph SW30.6 kmh SW 12.1 mph19.5 kmh -338605.1 mb - 0.00 in0.0 mm 0.00 in0.0 mm
07:52 PM 66.4°F19.1°C 35.6°F2.0°C 32% 17.0 mph WSW27.4 kmh WSW 12.1 mph19.5 kmh -338605.1 mb - 0.00 in0.0 mm 0.00 in0.0 mm
07:57 PM 66.2°F19.0°C 35.4°F1.9°C 32% 17.0 mph WSW27.4 kmh WSW 23.0 mph37.0 kmh -338605.1 mb - 0.00 in0.0 mm 0.00 in0.0 mm
08:02 PM 66.2°F19.0°C 34.7°F1.5°C 31% 15.0 mph WSW24.1 kmh WSW 16.1 mph25.9 kmh -338605.1 mb - 0.00 in0.0 mm 0.00 in0.0 mm
08:07 PM 66.0°F18.9°C 34.5°F1.4°C 31% 13.0 mph SW20.9 kmh SW 21.0 mph33.8 kmh -338605.1 mb - 0.00 in0.0 mm 0.00 in0.0 mm
08:12 PM 65.8°F18.8°C 35.2°F1.8°C 32% 17.0 mph WSW27.4 kmh WSW 19.0 mph30.6 kmh -338605.1 mb - 0.00 in0.0 mm 0.00 in0.0 mm
08:17 PM 65.8°F18.8°C 35.2°F1.8°C 32% 16.1 mph SW25.9 kmh SW 4.9 mph7.9 kmh -338605.1 mb - 0.00 in0.0 mm 0.00 in0.0 mm
08:22 PM 65.8°F18.8°C 35.2°F1.8°C 32% 12.1 mph SW19.5 kmh SW 13.0 mph20.9 kmh -338605.1 mb - 0.00 in0.0 mm 0.00 in0.0 mm
08:27 PM 65.7°F18.7°C 35.8°F2.1°C 33% 12.1 mph WSW19.5 kmh WSW 8.9 mph14.3 kmh -338605.1 mb - 0.00 in0.0 mm 0.00 in0.0 mm
08:32 PM 65.7°F18.7°C 35.1°F1.7°C 32% 12.1 mph SW19.5 kmh SW 16.1 mph25.9 kmh -338605.1 mb - 0.00 in0.0 mm 0.00 in0.0 mm
08:37 PM 65.7°F18.7°C 35.8°F2.1°C 33% 10.1 mph WSW16.3 kmh WSW 10.1 mph16.3 kmh -338605.1 mb - 0.00 in0.0 mm 0.00 in0.0 mm
08:42 PM 65.5°F18.6°C 36.3°F2.4°C 34% 8.9 mph SSW14.3 kmh SSW 6.9 mph11.1 kmh -338605.1 mb - 0.00 in0.0 mm 0.00 in0.0 mm
08:47 PM 65.1°F18.4°C 35.2°F1.8°C 33% 10.1 mph SW16.3 kmh SW 6.0 mph9.7 kmh -338605.1 mb - 0.00 in0.0 mm 0.00 in0.0 mm
08:52 PM 64.9°F18.3°C 35.1°F1.7°C 33% 11.0 mph S17.7 kmh S 11.0 mph17.7 kmh -338605.1 mb - 0.00 in0.0 mm 0.00 in0.0 mm
08:57 PM 65.1°F18.4°C 35.2°F1.8°C 33% 12.1 mph SSW19.5 kmh SSW 17.0 mph27.4 kmh -338605.1 mb - 0.00 in0.0 mm 0.00 in0.0 mm
09:02 PM 64.9°F18.3°C 36.0°F2.2°C 34% 11.0 mph SSW17.7 kmh SSW 8.1 mph13.0 kmh -338605.1 mb - 0.00 in0.0 mm 0.00 in0.0 mm
09:07 PM 64.8°F18.2°C 35.8°F2.1°C 34% 11.0 mph SW17.7 kmh SW 8.9 mph14.3 kmh -338605.1 mb - 0.00 in0.0 mm 0.00 in0.0 mm
09:12 PM 64.8°F18.2°C 35.8°F2.1°C 34% 10.1 mph SSW16.3 kmh SSW 8.9 mph14.3 kmh -338605.1 mb - 0.00 in0.0 mm 0.00 in0.0 mm
09:17 PM 64.8°F18.2°C 36.5°F2.5°C 35% 8.9 mph SSW14.3 kmh SSW 8.9 mph14.3 kmh -338605.1 mb - 0.00 in0.0 mm 0.00 in0.0 mm
09:22 PM 64.8°F18.2°C 35.8°F2.1°C 34% 8.9 mph SW14.3 kmh SW 4.0 mph6.4 kmh -338605.1 mb - 0.00 in0.0 mm 0.00 in0.0 mm
09:27 PM 64.6°F18.1°C 34.9°F1.6°C 33% 10.1 mph SW16.3 kmh SW 11.0 mph17.7 kmh -338605.1 mb - 0.00 in0.0 mm 0.00 in0.0 mm
09:32 PM 64.6°F18.1°C 35.6°F2.0°C 34% 11.0 mph WSW17.7 kmh WSW 8.9 mph14.3 kmh -338605.1 mb - 0.00 in0.0 mm 0.00 in0.0 mm
09:37 PM 64.6°F18.1°C 34.9°F1.6°C 33% 10.1 mph SSW16.3 kmh SSW 12.1 mph19.5 kmh -338605.1 mb - 0.00 in0.0 mm 0.00 in0.0 mm
09:42 PM 64.4°F18.0°C 34.7°F1.5°C 33% 10.1 mph SW16.3 kmh SW 14.1 mph22.7 kmh -338605.1 mb - 0.00 in0.0 mm 0.00 in0.0 mm
09:47 PM 64.2°F17.9°C 34.5°F1.4°C 33% 10.1 mph SSW16.3 kmh SSW 10.1 mph16.3 kmh -338605.1 mb - 0.00 in0.0 mm 0.00 in0.0 mm
09:52 PM 64.0°F17.8°C 35.1°F1.7°C 34% 11.0 mph SW17.7 kmh SW 16.1 mph25.9 kmh -338605.1 mb - 0.00 in0.0 mm 0.00 in0.0 mm
09:57 PM 63.9°F17.7°C 34.9°F1.6°C 34% 12.1 mph WSW19.5 kmh WSW 8.1 mph13.0 kmh -338605.1 mb - 0.00 in0.0 mm 0.00 in0.0 mm
10:02 PM 63.9°F17.7°C 34.9°F1.6°C 34% 11.0 mph SW17.7 kmh SW 4.9 mph7.9 kmh -338605.1 mb - 0.00 in0.0 mm 0.00 in0.0 mm
10:07 PM 63.9°F17.7°C 34.9°F1.6°C 34% 10.1 mph SSW16.3 kmh SSW 6.0 mph9.7 kmh -338605.1 mb - 0.00 in0.0 mm 0.00 in0.0 mm
10:12 PM 63.7°F17.6°C 34.7°F1.5°C 34% 8.1 mph SSW13.0 kmh SSW 14.1 mph22.7 kmh -338605.1 mb - 0.00 in0.0 mm 0.00 in0.0 mm
10:17 PM 63.3°F17.4°C 34.5°F1.4°C 34% 8.9 mph SW14.3 kmh SW 4.9 mph7.9 kmh -338605.1 mb - 0.00 in0.0 mm 0.00 in0.0 mm
10:22 PM 63.1°F17.3°C 34.3°F1.3°C 34% 10.1 mph SW16.3 kmh SW 12.1 mph19.5 kmh -338605.1 mb - 0.00 in0.0 mm 0.00 in0.0 mm
10:27 PM 63.0°F17.2°C 34.2°F1.2°C 34% 11.0 mph SSW17.7 kmh SSW 12.1 mph19.5 kmh -338605.1 mb - 0.00 in0.0 mm 0.00 in0.0 mm
10:32 PM 62.8°F17.1°C 34.0°F1.1°C 34% 12.1 mph SW19.5 kmh SW 14.1 mph22.7 kmh -338605.1 mb - 0.00 in0.0 mm 0.00 in0.0 mm
10:37 PM 62.8°F17.1°C 33.3°F0.7°C 33% 12.1 mph SW19.5 kmh SW 15.0 mph24.1 kmh -338605.1 mb - 0.00 in0.0 mm 0.00 in0.0 mm
10:42 PM 62.6°F17.0°C 33.1°F0.6°C 33% 13.0 mph SW20.9 kmh SW 10.1 mph16.3 kmh -338605.1 mb - 0.00 in0.0 mm 0.00 in0.0 mm
10:47 PM 62.4°F16.9°C 32.9°F0.5°C 33% 14.1 mph SW22.7 kmh SW 12.1 mph19.5 kmh -338605.1 mb - 0.00 in0.0 mm 0.00 in0.0 mm
10:52 PM 62.4°F16.9°C 32.9°F0.5°C 33% 15.0 mph SW24.1 kmh SW 23.0 mph37.0 kmh -338605.1 mb - 0.00 in0.0 mm 0.00 in0.0 mm
10:57 PM 62.4°F16.9°C 32.2°F0.1°C 32% 14.1 mph SW22.7 kmh SW 16.1 mph25.9 kmh -338605.1 mb - 0.00 in0.0 mm 0.00 in0.0 mm
11:02 PM 62.6°F17.0°C 32.4°F0.2°C 32% 14.1 mph SW22.7 kmh SW 21.9 mph35.2 kmh -338605.1 mb - 0.00 in0.0 mm 0.00 in0.0 mm
11:07 PM 62.6°F17.0°C 32.4°F0.2°C 32% 15.0 mph SW24.1 kmh SW 19.9 mph32.0 kmh -338605.1 mb - 0.00 in0.0 mm 0.00 in0.0 mm
11:12 PM 62.6°F17.0°C 32.4°F0.2°C 32% 14.1 mph SW22.7 kmh SW 21.0 mph33.8 kmh -338605.1 mb - 0.00 in0.0 mm 0.00 in0.0 mm
11:17 PM 62.6°F17.0°C 31.5°F-0.3°C 31% 13.0 mph SW20.9 kmh SW 8.1 mph13.0 kmh -338605.1 mb - 0.00 in0.0 mm 0.00 in0.0 mm
11:22 PM 62.8°F17.1°C 31.6°F-0.2°C 31% 13.0 mph SW20.9 kmh SW 13.0 mph20.9 kmh -338605.1 mb - 0.00 in0.0 mm 0.00 in0.0 mm
11:27 PM 62.8°F17.1°C 31.6°F-0.2°C 31% 12.1 mph WSW19.5 kmh WSW 16.1 mph25.9 kmh -338605.1 mb - 0.00 in0.0 mm 0.00 in0.0 mm
11:32 PM 63.0°F17.2°C 31.1°F-0.5°C 30% 13.0 mph WSW20.9 kmh WSW 13.0 mph20.9 kmh -338605.1 mb - 0.00 in0.0 mm 0.00 in0.0 mm
11:37 PM 63.0°F17.2°C 31.1°F-0.5°C 30% 14.1 mph WSW22.7 kmh WSW 19.0 mph30.6 kmh -338605.1 mb - 0.00 in0.0 mm 0.00 in0.0 mm
11:42 PM 63.0°F17.2°C 31.1°F-0.5°C 30% 13.0 mph SW20.9 kmh SW 12.1 mph19.5 kmh -338605.1 mb - 0.00 in0.0 mm 0.00 in0.0 mm
11:47 PM 63.0°F17.2°C 31.1°F-0.5°C 30% 13.0 mph WSW20.9 kmh WSW 15.0 mph24.1 kmh -338605.1 mb - 0.00 in0.0 mm 0.00 in0.0 mm
11:52 PM 63.0°F17.2°C 31.1°F-0.5°C 30% 12.1 mph WSW19.5 kmh WSW 8.1 mph13.0 kmh -338605.1 mb - 0.00 in0.0 mm 0.00 in0.0 mm
11:57 PM 63.1°F17.3°C 30.4°F-0.9°C 29% 10.1 mph WSW16.3 kmh WSW 8.9 mph14.3 kmh -338605.1 mb - 0.00 in0.0 mm 0.00 in0.0 mm